createdAt,value
2023-05-05T00:01:48.898Z,5.85
2023-05-05T00:04:17.605Z,3.45
2023-05-05T00:06:45.450Z,4.18
2023-05-05T00:09:13.295Z,3.95
2023-05-05T00:11:41.012Z,3.92
2023-05-05T00:14:08.691Z,5.70
2023-05-05T00:16:36.503Z,3.35
2023-05-05T00:19:05.746Z,5.38
2023-05-05T00:21:33.428Z,7.35
2023-05-05T00:24:01.144Z,4.03
2023-05-05T00:26:28.820Z,5.35
2023-05-05T00:28:56.508Z,3.50
2023-05-05T00:31:24.324Z,4.97
2023-05-05T00:33:52.036Z,3.15
2023-05-05T00:36:21.075Z,4.70
2023-05-05T00:38:48.786Z,3.75
2023-05-05T00:41:16.416Z,5.05
2023-05-05T00:43:44.047Z,3.70
2023-05-05T00:46:19.911Z,3.75
2023-05-05T00:48:47.592Z,6.80
2023-05-05T00:51:16.928Z,4.72
2023-05-05T00:53:46.255Z,3.63
2023-05-05T00:56:14.353Z,4.20
2023-05-05T00:58:42.788Z,4.95
2023-05-05T01:01:12.020Z,4.93
2023-05-05T01:03:40.616Z,4.77
2023-05-05T01:06:17.187Z,3.63
2023-05-05T01:08:56.150Z,3.80
2023-05-05T01:11:28.121Z,4.32
2023-05-05T01:14:01.931Z,5.57
2023-05-05T01:16:31.894Z,5.35
2023-05-05T01:19:02.256Z,4.25
2023-05-05T01:21:33.286Z,3.90
2023-05-05T01:24:34.454Z,4.20
2023-05-05T01:27:21.149Z,4.18
2023-05-05T01:30:02.076Z,5.65
2023-05-05T01:32:33.296Z,4.87
2023-05-05T01:35:02.778Z,4.70
2023-05-05T01:37:31.792Z,5.53
2023-05-05T01:40:01.650Z,4.65
2023-05-05T01:42:30.559Z,4.78
2023-05-05T01:44:58.627Z,5.30
2023-05-05T01:47:27.481Z,5.30
2023-05-05T01:49:56.674Z,7.05
2023-05-05T01:52:25.154Z,4.50
2023-05-05T01:54:53.824Z,4.40
2023-05-05T01:57:22.432Z,4.63
2023-05-05T01:59:51.496Z,5.32
2023-05-05T02:02:20.121Z,4.45
2023-05-05T02:04:49.188Z,8.05
2023-05-05T02:07:18.373Z,4.68
2023-05-05T02:09:46.330Z,4.65
2023-05-05T02:12:14.338Z,4.97
2023-05-05T02:14:43.488Z,4.77
2023-05-05T02:17:12.282Z,6.43
2023-05-05T02:19:41.567Z,5.80
2023-05-05T02:22:09.373Z,5.22
2023-05-05T02:24:38.514Z,5.50
2023-05-05T02:27:07.605Z,5.00
2023-05-05T02:29:36.846Z,7.50
2023-05-05T02:32:07.217Z,6.00
2023-05-05T02:34:37.129Z,5.30
2023-05-05T02:37:08.195Z,5.25
2023-05-05T02:39:43.498Z,7.30
2023-05-05T02:42:12.088Z,5.47
2023-05-05T02:44:42.592Z,6.10
2023-05-05T02:47:10.287Z,6.05
2023-05-05T02:49:38.030Z,6.03
2023-05-05T02:52:05.732Z,6.32
2023-05-05T02:54:33.967Z,6.38
2023-05-05T02:57:03.097Z,6.22
2023-05-05T02:59:34.901Z,6.40
2023-05-05T03:02:11.406Z,5.85
2023-05-05T03:04:40.802Z,6.28
2023-05-05T03:07:12.126Z,6.15
2023-05-05T03:09:41.655Z,7.03
2023-05-05T03:12:12.032Z,6.20
2023-05-05T03:14:42.236Z,6.03
2023-05-05T03:17:10.987Z,6.77
2023-05-05T03:19:39.996Z,7.25
2023-05-05T03:22:07.731Z,6.15
2023-05-05T03:24:35.483Z,9.77
2023-05-05T03:27:03.230Z,6.55
2023-05-05T03:29:32.317Z,6.93
2023-05-05T03:32:00.975Z,6.40
2023-05-05T03:34:28.646Z,7.75
2023-05-05T03:36:56.362Z,7.05
2023-05-05T03:39:24.069Z,6.82
2023-05-05T03:41:51.759Z,6.60
2023-05-05T03:44:19.453Z,8.13
2023-05-05T03:46:48.470Z,7.95
2023-05-05T03:49:16.233Z,6.80
2023-05-05T03:51:44.196Z,7.25
2023-05-05T03:54:11.843Z,8.98
2023-05-05T03:56:39.449Z,7.47
2023-05-05T03:59:08.711Z,7.97
2023-05-05T04:01:36.445Z,7.50
2023-05-05T04:04:05.804Z,7.97
2023-05-05T04:06:33.501Z,8.55
2023-05-05T04:09:01.197Z,7.97
2023-05-05T04:11:28.889Z,8.03
2023-05-05T04:13:56.584Z,8.55
2023-05-05T04:16:24.298Z,8.30
2023-05-05T04:18:52.010Z,9.10
2023-05-05T04:21:21.048Z,8.57
2023-05-05T04:23:49.098Z,9.75
2023-05-05T04:26:16.802Z,9.43
2023-05-05T04:28:44.541Z,9.27
2023-05-05T04:31:12.265Z,9.60
2023-05-05T04:33:39.974Z,11.03
2023-05-05T04:36:08.401Z,10.35
2023-05-05T04:38:37.681Z,10.32
2023-05-05T04:41:07.254Z,11.95
2023-05-05T04:43:34.914Z,11.30
2023-05-05T04:46:02.590Z,11.02
2023-05-05T04:48:30.342Z,11.57
2023-05-05T04:50:58.011Z,10.80
2023-05-05T04:53:25.890Z,11.20
2023-05-05T04:55:54.984Z,11.80
2023-05-05T04:58:22.583Z,13.20
2023-05-05T05:00:50.247Z,14.07
2023-05-05T05:03:17.969Z,12.60
2023-05-05T05:05:45.644Z,12.52
2023-05-05T05:08:13.347Z,12.38
2023-05-05T05:10:41.430Z,11.57
2023-05-05T05:13:12.540Z,12.75
2023-05-05T05:15:40.768Z,13.02
2023-05-05T05:18:08.452Z,12.63
2023-05-05T05:20:36.080Z,13.02
2023-05-05T05:23:04.498Z,12.30
2023-05-05T05:25:32.189Z,12.48
2023-05-05T05:28:09.643Z,13.05
2023-05-05T05:30:39.886Z,13.27
2023-05-05T05:33:07.618Z,13.90
2023-05-05T05:35:35.352Z,13.05
2023-05-05T05:38:03.059Z,13.50
2023-05-05T05:40:31.524Z,12.77
2023-05-05T05:42:59.375Z,12.25
2023-05-05T05:45:27.095Z,13.00
2023-05-05T05:47:56.317Z,12.80
2023-05-05T05:50:24.532Z,13.00
2023-05-05T05:52:52.191Z,13.00
2023-05-05T05:55:19.872Z,12.35
2023-05-05T05:57:47.603Z,12.77
2023-05-05T06:00:16.868Z,12.25
2023-05-05T06:02:44.669Z,12.68
2023-05-05T06:05:13.864Z,12.32
2023-05-05T06:07:41.564Z,11.95
2023-05-05T06:10:25.705Z,11.83
2023-05-05T06:12:54.831Z,13.00
2023-05-05T06:15:22.536Z,11.40
2023-05-05T06:17:50.158Z,10.43
2023-05-05T06:20:19.556Z,10.02
2023-05-05T06:22:47.367Z,10.48
2023-05-05T06:25:15.068Z,10.48
2023-05-05T06:27:42.783Z,10.32
2023-05-05T06:30:11.530Z,9.20
2023-05-05T06:32:39.250Z,9.52
2023-05-05T06:35:08.108Z,10.38
2023-05-05T06:37:37.180Z,11.30
2023-05-05T06:40:05.696Z,9.43
2023-05-05T06:42:33.508Z,8.90
2023-05-05T06:45:01.480Z,8.57
2023-05-05T06:47:29.170Z,8.73
2023-05-05T06:49:56.849Z,8.13
2023-05-05T06:52:24.564Z,9.63
2023-05-05T06:54:53.608Z,9.13
2023-05-05T06:57:21.372Z,8.70
2023-05-05T06:59:49.057Z,9.97
2023-05-05T07:02:17.121Z,9.10
2023-05-05T07:04:45.173Z,9.07
2023-05-05T07:07:12.907Z,9.43
2023-05-05T07:09:41.228Z,9.30
2023-05-05T07:12:10.426Z,10.57
2023-05-05T07:14:38.081Z,10.07
2023-05-05T07:17:06.355Z,10.70
2023-05-05T07:19:34.062Z,10.40
2023-05-05T07:22:01.741Z,10.15
2023-05-05T07:24:29.438Z,10.10
2023-05-05T07:26:57.420Z,10.30
2023-05-05T07:29:26.742Z,12.77
2023-05-05T07:31:54.480Z,10.20
2023-05-05T07:34:22.230Z,9.65
2023-05-05T07:36:49.948Z,10.40
2023-05-05T07:39:19.329Z,10.05
2023-05-05T07:41:47.200Z,11.02
2023-05-05T07:44:14.876Z,9.93
2023-05-05T07:46:43.890Z,9.60
2023-05-05T07:49:11.529Z,9.73
2023-05-05T07:51:39.166Z,9.95
2023-05-05T07:54:06.977Z,9.48
2023-05-05T07:56:34.755Z,9.98
2023-05-05T07:59:02.405Z,9.70
2023-05-05T08:01:30.169Z,11.00
2023-05-05T08:03:59.490Z,9.75
2023-05-05T08:06:27.800Z,9.93
2023-05-05T08:08:55.601Z,10.07
2023-05-05T08:11:23.338Z,10.90
2023-05-05T08:13:51.051Z,23.48
2023-05-05T08:16:19.098Z,14.13
2023-05-05T08:18:46.874Z,10.23
2023-05-05T08:21:16.030Z,9.98
2023-05-05T08:23:43.741Z,10.43
2023-05-05T08:26:11.578Z,9.93
2023-05-05T08:28:39.327Z,10.70
2023-05-05T08:31:07.764Z,9.52
2023-05-05T08:33:35.546Z,9.18
2023-05-05T08:36:03.205Z,7.88
2023-05-05T08:38:32.262Z,8.10
2023-05-05T08:41:00.020Z,8.38
2023-05-05T08:43:27.707Z,7.47
2023-05-05T08:45:56.307Z,7.32
2023-05-05T08:48:24.530Z,7.00
2023-05-05T08:50:57.998Z,9.20
2023-05-05T08:53:40.088Z,9.90
2023-05-05T08:56:08.790Z,6.63
2023-05-05T08:58:38.126Z,7.15
2023-05-05T09:01:07.269Z,4.78
2023-05-05T09:03:35.649Z,5.43
2023-05-05T09:06:03.651Z,2.85
2023-05-05T09:08:32.622Z,2.67
2023-05-05T09:11:01.997Z,3.10
2023-05-05T09:13:31.228Z,4.38
2023-05-05T09:15:59.137Z,4.88
2023-05-05T09:18:27.196Z,4.80
2023-05-05T09:20:55.444Z,5.57
2023-05-05T09:25:01.029Z,4.85
2023-05-05T09:27:28.827Z,3.90
2023-05-05T09:29:56.711Z,3.65
2023-05-05T09:32:24.461Z,4.80
2023-05-05T09:34:59.153Z,4.15
2023-05-05T09:37:30.957Z,4.50
2023-05-05T09:40:01.588Z,5.97
2023-05-05T09:42:29.274Z,3.63
2023-05-05T09:44:59.787Z,5.55
2023-05-05T09:47:35.549Z,3.90
2023-05-05T09:50:04.179Z,4.25
2023-05-05T09:52:32.092Z,4.32
2023-05-05T09:55:01.145Z,2.78
2023-05-05T09:57:30.458Z,2.57
2023-05-05T09:59:58.913Z,3.40
2023-05-05T10:02:34.046Z,2.65
2023-05-05T10:05:06.505Z,4.57
2023-05-05T10:07:34.724Z,1.85
2023-05-05T10:10:04.403Z,6.30
2023-05-05T10:12:32.790Z,3.50
2023-05-05T10:15:02.678Z,3.85
2023-05-05T10:17:32.780Z,3.10
2023-05-05T10:20:01.985Z,3.00
2023-05-05T10:22:30.702Z,5.10
2023-05-05T10:24:59.343Z,2.25
2023-05-05T10:27:29.858Z,3.47
2023-05-05T10:30:03.772Z,12.80
2023-05-05T10:32:56.962Z,4.57
2023-05-05T10:35:23.154Z,4.03
2023-05-05T10:37:51.107Z,1.80
2023-05-05T10:40:18.846Z,1.75
2023-05-05T10:42:50.047Z,1.63
2023-05-05T10:45:17.788Z,2.88
2023-05-05T10:47:45.609Z,1.42
2023-05-05T10:50:17.528Z,2.22
2023-05-05T10:52:49.131Z,1.30
2023-05-05T10:55:18.510Z,2.38
2023-05-05T10:57:47.803Z,2.10
2023-05-05T11:00:50.040Z,2.65
2023-05-05T11:03:21.960Z,2.47
2023-05-05T11:06:14.715Z,4.00
2023-05-05T11:08:43.953Z,3.38
2023-05-05T11:11:12.584Z,1.63
2023-05-05T11:13:41.951Z,2.55
2023-05-05T11:16:44.614Z,10.85
2023-05-05T11:19:48.957Z,2.72
2023-05-05T11:22:17.577Z,2.10
2023-05-05T11:24:45.698Z,6.45
2023-05-05T11:27:13.493Z,5.80
2023-05-05T11:30:08.209Z,3.60
2023-05-05T11:32:36.169Z,3.30
2023-05-05T11:35:04.233Z,3.10
2023-05-05T11:37:31.894Z,2.42
2023-05-05T11:40:07.100Z,2.13
2023-05-05T11:42:35.099Z,2.80
2023-05-05T11:45:03.392Z,3.40
2023-05-05T11:47:35.566Z,2.65
2023-05-05T11:50:21.698Z,3.45
2023-05-05T11:52:49.482Z,1.95
2023-05-05T11:55:22.055Z,1.77
2023-05-05T11:57:49.862Z,1.40
2023-05-05T12:00:18.346Z,2.35
2023-05-05T12:02:47.675Z,2.15
2023-05-05T12:05:21.195Z,2.45
2023-05-05T12:07:49.041Z,2.27
2023-05-05T12:10:23.823Z,3.05
2023-05-05T12:12:53.178Z,1.60
2023-05-05T12:15:29.663Z,1.98
2023-05-05T12:18:01.454Z,1.80
2023-05-05T12:20:30.877Z,2.00
2023-05-05T12:23:01.517Z,2.17
2023-05-05T12:25:36.192Z,2.70
2023-05-05T12:28:03.868Z,1.58
2023-05-05T12:30:31.590Z,2.25
2023-05-05T12:33:04.188Z,1.65
2023-05-05T12:35:32.062Z,2.90
2023-05-05T12:37:59.918Z,1.75
2023-05-05T12:40:47.975Z,2.40
2023-05-05T12:43:26.582Z,2.30
2023-05-05T12:46:05.388Z,2.70
2023-05-05T12:48:34.920Z,4.50
2023-05-05T12:51:15.228Z,2.92
2023-05-05T12:53:42.910Z,2.83
2023-05-05T12:56:36.054Z,1.40
2023-05-05T12:59:04.988Z,3.03
2023-05-05T13:01:33.055Z,0.60
2023-05-05T13:04:15.250Z,0.90
2023-05-05T13:06:44.280Z,0.82
2023-05-05T13:09:24.119Z,2.03
2023-05-05T13:11:51.848Z,1.40
2023-05-05T13:14:19.673Z,2.55
2023-05-05T13:16:47.372Z,1.58
2023-05-05T13:19:16.460Z,4.40
2023-05-05T13:21:44.216Z,2.53
2023-05-05T13:24:22.930Z,3.65
2023-05-05T13:26:56.567Z,1.93
2023-05-05T13:29:28.363Z,2.97
2023-05-05T13:31:58.279Z,2.15
2023-05-05T13:34:28.287Z,2.40
2023-05-05T13:36:56.262Z,1.57
2023-05-05T13:39:24.013Z,1.23
2023-05-05T13:41:51.784Z,1.60
2023-05-05T13:44:19.524Z,2.53
2023-05-05T13:46:47.334Z,1.23
2023-05-05T13:49:15.148Z,1.52
2023-05-05T13:51:45.287Z,2.13
2023-05-05T13:54:13.231Z,1.17
2023-05-05T13:56:41.036Z,1.27
2023-05-05T13:59:09.093Z,1.58
2023-05-05T14:01:37.309Z,1.33
2023-05-05T14:04:06.104Z,2.92
2023-05-05T14:06:34.103Z,1.95
2023-05-05T14:09:05.894Z,1.40
2023-05-05T14:11:33.899Z,1.15
2023-05-05T14:14:01.782Z,1.37
2023-05-05T14:16:29.642Z,1.77
2023-05-05T14:18:57.267Z,2.08
2023-05-05T14:21:24.968Z,1.63
2023-05-05T14:23:52.687Z,1.90
2023-05-05T14:26:21.784Z,1.70
2023-05-05T14:28:50.220Z,2.30
2023-05-05T14:31:18.526Z,1.42
2023-05-05T14:33:46.198Z,1.85
2023-05-05T14:36:14.285Z,1.67
2023-05-05T14:38:42.936Z,1.40
2023-05-05T14:41:11.403Z,1.77
2023-05-05T14:43:40.966Z,1.50
2023-05-05T14:46:08.709Z,1.10
2023-05-05T14:48:36.591Z,1.75
2023-05-05T14:51:04.622Z,1.40
2023-05-05T14:53:32.368Z,1.60
2023-05-05T14:56:00.017Z,1.92
2023-05-05T14:58:27.732Z,1.70
2023-05-05T15:00:56.961Z,1.65
2023-05-05T15:03:24.891Z,1.50
2023-05-05T15:05:52.618Z,2.70
2023-05-05T15:08:20.388Z,1.77
2023-05-05T15:10:48.113Z,1.98
2023-05-05T15:13:16.020Z,2.63
2023-05-05T15:15:45.074Z,2.53
2023-05-05T15:18:14.232Z,1.90
2023-05-05T15:20:41.958Z,2.90
2023-05-05T15:24:01.438Z,1.83
2023-05-05T15:26:29.045Z,3.40
2023-05-05T15:28:56.632Z,2.13
2023-05-05T15:31:24.324Z,2.25
2023-05-05T15:33:52.056Z,1.53
2023-05-05T15:36:22.481Z,1.45
2023-05-05T15:38:50.387Z,2.22
2023-05-05T15:41:19.481Z,1.73
2023-05-05T15:43:47.178Z,1.73
2023-05-05T15:46:14.821Z,1.00
2023-05-05T15:48:42.580Z,1.73
2023-05-05T15:51:12.577Z,1.15
2023-05-05T15:53:40.322Z,1.45
2023-05-05T15:56:08.244Z,1.13
2023-05-05T15:58:37.524Z,1.60
2023-05-05T16:01:05.329Z,0.70
2023-05-05T16:03:33.116Z,2.25
2023-05-05T16:06:00.786Z,1.42
2023-05-05T16:08:29.090Z,1.60
2023-05-05T16:10:56.980Z,0.80
2023-05-05T16:13:24.756Z,0.88
2023-05-05T16:15:53.841Z,1.10
2023-05-05T16:18:21.507Z,0.60
2023-05-05T16:20:49.921Z,0.80
2023-05-05T16:23:17.796Z,0.70
2023-05-05T16:25:45.607Z,1.55
2023-05-05T16:28:13.325Z,1.00
2023-05-05T16:30:42.768Z,0.90
2023-05-05T16:33:11.926Z,0.70
2023-05-05T16:35:39.741Z,0.80
2023-05-05T16:38:07.485Z,0.80
2023-05-05T16:40:37.458Z,1.25
2023-05-05T16:43:05.386Z,0.90
2023-05-05T16:45:33.060Z,1.10
2023-05-05T16:48:00.778Z,0.80
2023-05-05T16:50:29.912Z,0.90
2023-05-05T16:52:57.869Z,0.83
2023-05-05T16:55:25.887Z,1.50
2023-05-05T16:57:53.705Z,1.10
2023-05-05T17:00:21.693Z,1.10
2023-05-05T17:02:50.045Z,0.90
2023-05-05T17:05:18.411Z,0.93
2023-05-05T17:07:48.285Z,1.00
2023-05-05T17:10:16.151Z,0.65
2023-05-05T17:12:43.925Z,0.82
2023-05-05T17:15:11.962Z,1.30
2023-05-05T17:17:41.570Z,1.77
2023-05-05T17:20:12.276Z,1.50
2023-05-05T17:22:40.351Z,1.55
2023-05-05T17:25:10.906Z,0.70
2023-05-05T17:27:39.217Z,0.90
2023-05-05T17:30:08.255Z,1.50
2023-05-05T17:32:36.095Z,2.47
2023-05-05T17:35:03.978Z,1.30
2023-05-05T17:37:32.260Z,1.98
2023-05-05T17:39:59.977Z,1.77
2023-05-05T17:42:32.956Z,1.50
2023-05-05T17:45:00.800Z,2.60
2023-05-05T17:47:28.715Z,1.30
2023-05-05T17:49:57.924Z,1.02
2023-05-05T17:52:26.136Z,1.58
2023-05-05T17:54:53.808Z,1.30
2023-05-05T17:57:22.736Z,1.80
2023-05-05T17:59:53.615Z,1.73
2023-05-05T18:02:21.789Z,1.55
2023-05-05T18:04:49.612Z,1.40
2023-05-05T18:07:17.306Z,1.00
2023-05-05T18:09:45.007Z,1.27
2023-05-05T18:12:12.699Z,1.80
2023-05-05T18:14:40.470Z,1.23
2023-05-05T18:17:09.540Z,1.70
2023-05-05T18:19:38.219Z,2.40
2023-05-05T18:22:06.369Z,2.00
2023-05-05T18:24:34.140Z,1.52
2023-05-05T18:27:01.757Z,2.30
2023-05-05T18:29:29.481Z,1.50
2023-05-05T18:31:57.214Z,1.10
2023-05-05T18:34:26.379Z,1.70
2023-05-05T18:36:55.094Z,1.20
2023-05-05T18:39:22.752Z,1.70
2023-05-05T18:41:50.654Z,2.50
2023-05-05T18:44:19.463Z,1.77
2023-05-05T18:46:47.933Z,1.00
2023-05-05T18:49:16.312Z,2.08
2023-05-05T18:51:45.370Z,1.33
2023-05-05T18:54:13.138Z,2.20
2023-05-05T18:56:40.893Z,2.15
2023-05-05T18:59:08.599Z,2.55
2023-05-05T19:01:36.341Z,3.22
2023-05-05T19:04:05.425Z,2.60
2023-05-05T19:06:36.275Z,2.77
2023-05-05T19:09:05.445Z,3.33
2023-05-05T19:11:33.055Z,2.08
2023-05-05T19:14:00.678Z,3.08
2023-05-05T19:16:30.047Z,1.92
2023-05-05T19:18:58.789Z,2.30
2023-05-05T19:21:27.461Z,3.65
2023-05-05T19:23:55.132Z,2.83
2023-05-05T19:26:25.011Z,3.00
2023-05-05T19:28:55.186Z,2.55
2023-05-05T19:31:27.410Z,3.95
2023-05-05T19:34:05.275Z,4.20
2023-05-05T19:36:33.377Z,6.72
2023-05-05T19:39:01.645Z,10.98
2023-05-05T19:41:30.845Z,10.88
2023-05-05T19:43:58.644Z,14.95
2023-05-05T19:46:26.870Z,12.87
2023-05-05T19:48:54.673Z,10.70
2023-05-05T19:51:22.339Z,10.55
2023-05-05T19:53:50.400Z,7.30
2023-05-05T19:56:18.083Z,6.88
2023-05-05T19:58:56.496Z,7.85
2023-05-05T20:01:24.586Z,7.18
2023-05-05T20:03:54.335Z,7.10
2023-05-05T20:06:23.871Z,8.13
2023-05-05T20:08:51.589Z,6.73
2023-05-05T20:11:21.089Z,5.85
2023-05-05T20:13:49.246Z,4.45
2023-05-05T20:16:18.437Z,6.57
2023-05-05T20:18:46.281Z,4.32
2023-05-05T20:21:14.015Z,5.82
2023-05-05T20:23:43.006Z,3.38
2023-05-05T20:26:11.321Z,4.70
2023-05-05T20:28:40.829Z,2.97
2023-05-05T20:31:10.879Z,3.78
2023-05-05T20:33:40.086Z,4.07
2023-05-05T20:36:08.168Z,3.78
2023-05-05T20:38:35.880Z,4.78
2023-05-05T20:41:03.601Z,4.30
2023-05-05T20:43:31.290Z,3.38
2023-05-05T20:45:58.987Z,3.95
2023-05-05T20:48:26.856Z,4.10
2023-05-05T20:50:55.940Z,4.95
2023-05-05T20:53:25.365Z,5.25
2023-05-05T20:55:53.035Z,5.75
2023-05-05T20:58:20.971Z,4.45
2023-05-05T21:00:48.746Z,3.93
2023-05-05T21:03:16.492Z,5.95
2023-05-05T21:05:44.707Z,5.13
2023-05-05T21:08:13.808Z,7.00
2023-05-05T21:10:41.495Z,4.63
2023-05-05T21:13:09.247Z,4.35
2023-05-05T21:15:37.434Z,4.22
2023-05-05T21:18:05.583Z,5.43
2023-05-05T21:20:33.283Z,6.57
2023-05-05T21:23:01.017Z,4.53
2023-05-05T21:25:30.605Z,4.50
2023-05-05T21:27:58.301Z,4.40
2023-05-05T21:30:26.148Z,4.68
2023-05-05T21:32:53.957Z,5.30
2023-05-05T21:35:21.859Z,5.72
2023-05-05T21:37:50.020Z,4.93
2023-05-05T21:40:17.777Z,4.68
2023-05-05T21:42:46.841Z,4.32
2023-05-05T21:45:14.526Z,4.05
2023-05-05T21:47:42.306Z,4.60
2023-05-05T21:50:11.036Z,5.07
2023-05-05T21:52:38.972Z,4.65
2023-05-05T21:55:07.577Z,5.13
2023-05-05T21:57:35.259Z,4.75
2023-05-05T22:00:05.655Z,4.75
2023-05-05T22:02:34.278Z,4.15
2023-05-05T22:05:01.998Z,4.15
2023-05-05T22:07:31.017Z,3.50
2023-05-05T22:09:59.365Z,4.67
2023-05-05T22:12:27.028Z,4.97
2023-05-05T22:14:54.757Z,4.55
2023-05-05T22:17:23.901Z,4.60
2023-05-05T22:19:51.787Z,5.30
2023-05-05T22:22:19.469Z,4.63
2023-05-05T22:24:47.090Z,4.72
2023-05-05T22:27:14.807Z,4.68
2023-05-05T22:29:42.499Z,4.60
2023-05-05T22:32:10.154Z,5.20
2023-05-05T22:34:39.264Z,4.90
2023-05-05T22:37:07.408Z,5.33
2023-05-05T22:39:35.115Z,5.80
2023-05-05T22:42:03.702Z,4.68
2023-05-05T22:44:31.378Z,4.97
2023-05-05T22:46:59.259Z,5.40
2023-05-05T22:49:27.716Z,5.10
2023-05-05T22:51:57.220Z,4.57
2023-05-05T22:54:24.983Z,7.82
2023-05-05T22:56:52.725Z,6.68
2023-05-05T22:59:20.412Z,5.22
2023-05-05T23:01:48.083Z,6.32
2023-05-05T23:04:15.798Z,4.80
2023-05-05T23:06:44.874Z,4.90
2023-05-05T23:09:14.026Z,4.85
2023-05-05T23:11:41.699Z,4.80
2023-05-05T23:14:09.443Z,4.53
2023-05-05T23:16:37.122Z,5.85
2023-05-05T23:19:04.768Z,4.90
2023-05-05T23:21:36.273Z,4.60
2023-05-05T23:24:10.411Z,4.43
2023-05-05T23:26:39.468Z,4.53
2023-05-05T23:29:07.302Z,4.90
2023-05-05T23:31:35.256Z,4.93
2023-05-05T23:34:03.479Z,5.43
2023-05-05T23:36:31.200Z,5.37
2023-05-05T23:38:58.880Z,6.03
2023-05-05T23:41:26.660Z,5.27
2023-05-05T23:43:55.688Z,4.93
2023-05-05T23:46:23.986Z,5.30
2023-05-05T23:48:52.028Z,4.95
2023-05-05T23:51:19.716Z,6.25
2023-05-05T23:53:47.444Z,4.85
2023-05-05T23:56:15.254Z,5.53
2023-05-05T23:58:42.927Z,5.55
